createdAt,value
2023-01-20T00:00:53.901Z,42.90
2023-01-20T00:03:47.949Z,42.80
2023-01-20T00:06:41.694Z,42.60
2023-01-20T00:09:36.204Z,42.50
2023-01-20T00:12:31.614Z,42.30
2023-01-20T00:15:24.605Z,42.20
2023-01-20T00:18:17.904Z,42.00
2023-01-20T00:21:13.030Z,41.90
2023-01-20T00:24:07.545Z,41.80
2023-01-20T00:27:01.636Z,41.70
2023-01-20T00:29:54.587Z,41.70
2023-01-20T00:32:47.437Z,41.60
2023-01-20T00:35:40.923Z,41.50
2023-01-20T00:38:33.940Z,41.40
2023-01-20T00:41:26.935Z,41.40
2023-01-20T00:44:21.737Z,41.30
2023-01-20T00:47:14.795Z,41.10
2023-01-20T00:50:08.755Z,41.10
2023-01-20T00:53:01.512Z,41.10
2023-01-20T00:55:55.064Z,40.90
2023-01-20T00:58:48.813Z,40.90
2023-01-20T01:01:43.703Z,40.90
2023-01-20T01:04:36.653Z,40.70
2023-01-20T01:07:30.172Z,40.80
2023-01-20T01:10:24.168Z,40.70
2023-01-20T01:13:17.595Z,40.60
2023-01-20T01:16:12.987Z,40.60
2023-01-20T01:19:07.160Z,40.50
2023-01-20T01:22:00.702Z,40.50
2023-01-20T01:24:53.322Z,40.60
2023-01-20T01:27:46.797Z,40.60
2023-01-20T01:30:39.559Z,40.50
2023-01-20T01:33:33.056Z,40.40
2023-01-20T01:36:27.048Z,40.30
2023-01-20T01:39:19.749Z,40.30
2023-01-20T01:42:13.560Z,40.40
2023-01-20T01:45:21.342Z,40.40
2023-01-20T01:48:15.177Z,40.40
2023-01-20T01:51:14.893Z,40.40
2023-01-20T01:54:13.248Z,40.40
2023-01-20T01:57:09.590Z,40.40
2023-01-20T02:00:03.270Z,40.50
2023-01-20T02:02:57.842Z,40.50
2023-01-20T02:05:52.896Z,40.50
2023-01-20T02:08:45.587Z,40.60
2023-01-20T02:11:45.186Z,40.50
2023-01-20T02:14:41.391Z,40.60
2023-01-20T02:17:38.842Z,40.70
2023-01-20T02:21:05.045Z,40.60
2023-01-20T02:24:17.798Z,40.60
2023-01-20T02:27:15.762Z,40.40
2023-01-20T02:30:42.286Z,40.40
2023-01-20T02:33:42.408Z,40.40
2023-01-20T02:36:43.044Z,40.40
2023-01-20T02:39:44.670Z,40.40
2023-01-20T02:42:42.365Z,40.40
2023-01-20T02:45:43.940Z,40.50
2023-01-20T02:48:44.226Z,40.40
2023-01-20T02:51:43.430Z,40.40
2023-01-20T02:54:39.981Z,40.40
2023-01-20T02:57:40.166Z,40.30
2023-01-20T03:00:38.943Z,40.40
2023-01-20T03:03:36.028Z,40.30
2023-01-20T03:06:35.594Z,40.30
2023-01-20T03:09:31.418Z,40.30
2023-01-20T03:12:29.060Z,40.40
2023-01-20T03:15:25.588Z,40.20
2023-01-20T03:18:19.037Z,40.40
2023-01-20T03:21:12.801Z,40.60
2023-01-20T03:24:08.473Z,40.60
2023-01-20T03:27:01.864Z,40.60
2023-01-20T03:29:55.024Z,40.60
2023-01-20T03:32:50.804Z,40.60
2023-01-20T03:35:44.411Z,40.50
2023-01-20T03:38:38.087Z,40.50
2023-01-20T03:41:39.574Z,40.40
2023-01-20T03:44:43.225Z,40.30
2023-01-20T03:47:54.500Z,40.30
2023-01-20T03:50:54.807Z,40.30
2023-01-20T03:53:52.007Z,40.30
2023-01-20T03:56:51.645Z,40.20
2023-01-20T03:59:45.658Z,40.20
2023-01-20T04:02:40.713Z,40.20
2023-01-20T04:05:34.717Z,40.00
2023-01-20T04:08:34.088Z,40.00
2023-01-20T04:11:27.093Z,39.90
2023-01-20T04:14:21.178Z,39.90
2023-01-20T04:17:14.455Z,39.90
2023-01-20T04:20:11.263Z,39.80
2023-01-20T04:23:06.944Z,39.80
2023-01-20T04:25:59.664Z,39.80
2023-01-20T04:28:52.603Z,39.80
2023-01-20T04:31:47.018Z,39.80
2023-01-20T04:34:39.847Z,39.70
2023-01-20T04:37:32.374Z,39.80
2023-01-20T04:40:25.608Z,39.90
2023-01-20T04:43:18.707Z,40.10
2023-01-20T04:46:12.731Z,40.10
2023-01-20T04:49:07.053Z,40.20
2023-01-20T04:52:00.009Z,40.20
2023-01-20T04:54:52.765Z,40.20
2023-01-20T04:57:48.585Z,40.20
2023-01-20T05:00:43.708Z,40.30
2023-01-20T05:03:37.550Z,40.30
2023-01-20T05:06:32.109Z,40.30
2023-01-20T05:09:25.070Z,40.40
2023-01-20T05:12:18.176Z,40.40
2023-01-20T05:15:11.810Z,40.40
2023-01-20T05:18:05.087Z,40.40
2023-01-20T05:20:58.094Z,40.40
2023-01-20T05:23:54.398Z,40.40
2023-01-20T05:26:47.539Z,40.40
2023-01-20T05:29:40.524Z,40.50
2023-01-20T05:32:34.149Z,40.50
2023-01-20T05:35:27.243Z,40.50
2023-01-20T05:38:21.064Z,40.50
2023-01-20T05:41:15.802Z,40.50
2023-01-20T05:44:08.971Z,40.50
2023-01-20T05:47:01.886Z,40.50
2023-01-20T05:49:55.324Z,40.50
2023-01-20T05:52:49.539Z,40.50
2023-01-20T05:55:43.071Z,40.50
2023-01-20T05:58:37.182Z,40.40
2023-01-20T06:01:30.313Z,40.40
2023-01-20T06:04:24.327Z,40.30
2023-01-20T06:07:18.070Z,40.40
2023-01-20T06:10:12.759Z,40.40
2023-01-20T06:13:05.863Z,40.40
2023-01-20T06:16:00.356Z,40.40
2023-01-20T06:18:53.655Z,40.30
2023-01-20T06:21:48.245Z,40.30
2023-01-20T06:24:41.434Z,40.40
2023-01-20T06:27:35.121Z,40.30
2023-01-20T06:30:27.758Z,40.30
2023-01-20T06:33:22.282Z,40.30
2023-01-20T06:36:17.479Z,40.30
2023-01-20T06:39:11.156Z,40.30
2023-01-20T06:42:04.034Z,40.40
2023-01-20T06:44:57.044Z,40.40
2023-01-20T06:47:50.687Z,40.40
2023-01-20T06:50:45.502Z,40.30
2023-01-20T06:53:39.255Z,40.40
2023-01-20T06:56:31.940Z,40.40
2023-01-20T06:59:25.021Z,40.50
2023-01-20T07:02:18.362Z,40.60
2023-01-20T07:05:11.750Z,40.60
2023-01-20T07:08:06.550Z,40.60
2023-01-20T07:11:00.452Z,40.60
2023-01-20T07:13:54.491Z,40.70
2023-01-20T07:16:47.965Z,40.60
2023-01-20T07:19:41.059Z,40.70
2023-01-20T07:22:34.026Z,40.60
2023-01-20T07:25:28.208Z,40.70
2023-01-20T07:28:20.603Z,40.80
2023-01-20T07:31:15.967Z,40.70
2023-01-20T07:34:08.911Z,40.40
2023-01-20T07:37:02.379Z,40.40
2023-01-20T07:39:55.962Z,40.40
2023-01-20T07:42:50.136Z,40.30
2023-01-20T07:45:43.425Z,40.30
2023-01-20T07:48:37.230Z,40.60
2023-01-20T07:51:30.263Z,40.90
2023-01-20T07:54:23.120Z,41.10
2023-01-20T07:57:15.804Z,41.30
2023-01-20T08:00:12.064Z,41.40
2023-01-20T08:03:05.507Z,41.60
2023-01-20T08:05:59.093Z,41.80
2023-01-20T08:08:52.411Z,41.90
2023-01-20T08:11:46.140Z,42.00
2023-01-20T08:14:38.922Z,42.20
2023-01-20T08:17:33.517Z,42.30
2023-01-20T08:20:27.276Z,42.40
2023-01-20T08:23:20.327Z,42.60
2023-01-20T08:26:12.988Z,42.60
2023-01-20T08:29:08.294Z,42.80
2023-01-20T08:32:01.587Z,42.90
2023-01-20T08:34:56.639Z,43.00
2023-01-20T08:37:49.954Z,43.10
2023-01-20T08:40:43.400Z,43.20
2023-01-20T08:43:38.046Z,43.30
2023-01-20T08:46:32.044Z,43.30
2023-01-20T08:49:24.899Z,43.30
2023-01-20T08:52:19.791Z,43.40
2023-01-20T08:55:13.521Z,43.50
2023-01-20T08:58:07.371Z,43.50
2023-01-20T09:01:00.442Z,43.70
2023-01-20T09:04:05.456Z,43.70
2023-01-20T09:06:58.991Z,43.80
2023-01-20T09:09:53.688Z,43.80
2023-01-20T09:12:47.687Z,43.80
2023-01-20T09:15:41.263Z,43.90
2023-01-20T09:18:34.508Z,43.90
2023-01-20T09:21:28.156Z,44.00
2023-01-20T09:24:21.212Z,44.00
2023-01-20T09:27:15.094Z,44.00
2023-01-20T09:30:09.092Z,44.00
2023-01-20T09:33:02.435Z,44.10
2023-01-20T09:35:56.371Z,44.00
2023-01-20T09:39:06.421Z,44.10
2023-01-20T09:42:21.867Z,44.10
2023-01-20T09:45:26.072Z,44.10
2023-01-20T09:48:49.735Z,44.10
2023-01-20T09:52:07.595Z,44.10
2023-01-20T09:55:06.027Z,44.30
2023-01-20T09:58:06.385Z,44.30
2023-01-20T10:01:11.037Z,44.40
2023-01-20T10:04:09.292Z,44.40
2023-01-20T10:07:09.932Z,44.40
2023-01-20T10:10:15.680Z,44.40
2023-01-20T10:13:14.267Z,44.40
2023-01-20T10:16:12.276Z,44.40
2023-01-20T10:19:13.510Z,44.20
2023-01-20T10:22:13.589Z,44.50
2023-01-20T10:25:13.792Z,45.00
2023-01-20T10:28:11.700Z,45.30
2023-01-20T10:31:06.270Z,45.30
2023-01-20T10:34:08.737Z,45.40
2023-01-20T10:37:07.394Z,45.10
2023-01-20T10:40:08.592Z,45.30
2023-01-20T10:43:10.771Z,45.40
2023-01-20T10:46:20.895Z,46.90
2023-01-20T10:49:36.519Z,47.70
2023-01-20T10:52:55.567Z,47.90
2023-01-20T10:56:05.147Z,47.60
2023-01-20T10:59:01.022Z,47.40
2023-01-20T11:02:06.321Z,47.10
2023-01-20T11:05:18.557Z,46.90
2023-01-20T11:08:17.743Z,46.80
2023-01-20T11:11:13.859Z,46.60
2023-01-20T11:14:09.807Z,46.50
2023-01-20T11:17:06.278Z,46.40
2023-01-20T11:20:07.731Z,46.40
2023-01-20T11:23:01.175Z,46.30
2023-01-20T11:25:58.544Z,46.20
2023-01-20T11:28:57.468Z,46.20
2023-01-20T11:31:53.698Z,46.20
2023-01-20T11:34:50.611Z,46.10
2023-01-20T11:37:45.403Z,46.20
2023-01-20T11:40:38.347Z,46.10
2023-01-20T11:43:33.080Z,46.10
2023-01-20T11:46:29.966Z,46.10
2023-01-20T11:49:24.057Z,46.10
2023-01-20T11:52:21.773Z,46.10
2023-01-20T11:55:18.028Z,46.00
2023-01-20T11:58:18.745Z,46.00
2023-01-20T12:01:24.806Z,46.10
2023-01-20T12:04:39.663Z,46.00
2023-01-20T12:07:38.342Z,46.00
2023-01-20T12:10:36.577Z,46.00
2023-01-20T12:13:55.485Z,46.10
2023-01-20T12:16:53.663Z,46.10
2023-01-20T12:20:02.120Z,46.20
2023-01-20T12:23:08.430Z,46.20
2023-01-20T12:26:05.650Z,46.70
2023-01-20T12:29:03.073Z,46.80
2023-01-20T12:31:56.449Z,46.80
2023-01-20T12:34:49.228Z,43.80
2023-01-20T12:37:48.268Z,41.60
2023-01-20T12:40:46.278Z,38.00
2023-01-20T12:43:57.843Z,38.80
2023-01-20T12:46:55.903Z,39.70
2023-01-20T12:50:02.557Z,40.40
2023-01-20T12:53:17.130Z,40.90
2023-01-20T12:56:21.440Z,41.40
2023-01-20T12:59:26.075Z,41.80
2023-01-20T13:03:02.814Z,42.20
2023-01-20T13:06:20.388Z,42.50
2023-01-20T13:09:44.910Z,42.70
2023-01-20T13:12:45.975Z,42.90
2023-01-20T13:15:45.826Z,43.60
2023-01-20T13:18:54.794Z,43.10
2023-01-20T13:22:06.578Z,43.20
2023-01-20T13:25:04.625Z,43.30
2023-01-20T13:27:58.542Z,43.50
2023-01-20T13:30:54.539Z,43.50
2023-01-20T13:33:48.143Z,43.60
2023-01-20T13:36:53.410Z,43.70
2023-01-20T13:39:47.744Z,43.80
2023-01-20T13:42:51.866Z,43.90
2023-01-20T13:45:45.064Z,43.80
2023-01-20T13:49:05.944Z,43.80
2023-01-20T13:51:59.495Z,43.70
2023-01-20T13:54:52.479Z,43.70
2023-01-20T13:57:45.294Z,43.70
2023-01-20T14:00:38.528Z,43.70
2023-01-20T14:03:33.129Z,44.00
2023-01-20T14:06:28.438Z,44.20
2023-01-20T14:09:22.537Z,44.30
2023-01-20T14:12:15.211Z,44.50
2023-01-20T14:15:23.109Z,44.60
2023-01-20T14:18:18.410Z,44.60
2023-01-20T14:21:21.014Z,44.80
2023-01-20T14:24:28.554Z,44.80
2023-01-20T14:27:22.967Z,44.80
2023-01-20T14:30:20.780Z,45.00
2023-01-20T14:33:17.656Z,45.20
2023-01-20T14:36:15.049Z,45.40
2023-01-20T14:39:21.525Z,45.40
2023-01-20T14:42:19.047Z,45.60
2023-01-20T14:45:21.256Z,45.70
2023-01-20T14:48:28.328Z,45.70
2023-01-20T14:51:26.776Z,45.60
2023-01-20T14:54:39.659Z,45.50
2023-01-20T14:57:35.144Z,45.50
2023-01-20T15:00:30.188Z,45.40
2023-01-20T15:03:25.368Z,45.40
2023-01-20T15:06:23.912Z,45.30
2023-01-20T15:09:27.904Z,45.30
2023-01-20T15:12:42.364Z,45.20
2023-01-20T15:15:35.326Z,45.20
2023-01-20T15:18:28.240Z,45.10
2023-01-20T15:21:27.273Z,45.10
2023-01-20T15:24:21.817Z,45.10
2023-01-20T15:27:27.785Z,45.10
2023-01-20T15:30:27.175Z,45.00
2023-01-20T15:33:21.734Z,45.00
2023-01-20T15:36:23.080Z,45.00
2023-01-20T15:39:17.554Z,44.90
2023-01-20T15:42:12.103Z,44.90
2023-01-20T15:45:06.267Z,45.00
2023-01-20T15:48:00.713Z,45.00
2023-01-20T15:50:54.357Z,44.90
2023-01-20T15:53:48.162Z,44.90
2023-01-20T15:56:43.174Z,44.90
2023-01-20T15:59:36.468Z,44.90
2023-01-20T16:02:29.352Z,44.90
2023-01-20T16:05:25.272Z,44.90
2023-01-20T16:08:20.669Z,44.90
2023-01-20T16:11:13.605Z,45.00
2023-01-20T16:14:06.591Z,45.00
2023-01-20T16:16:59.177Z,44.90
2023-01-20T16:19:52.352Z,44.90
2023-01-20T16:22:46.835Z,45.00
2023-01-20T16:25:40.627Z,44.90
2023-01-20T16:28:33.415Z,44.90
2023-01-20T16:31:28.593Z,45.00
2023-01-20T16:34:21.681Z,44.90
2023-01-20T16:37:15.507Z,44.90
2023-01-20T16:40:14.405Z,44.90
2023-01-20T16:43:07.755Z,45.50
2023-01-20T16:46:00.644Z,44.90
2023-01-20T16:48:54.557Z,44.90
2023-01-20T16:51:47.365Z,44.90
2023-01-20T16:54:40.606Z,44.90
2023-01-20T16:57:34.765Z,44.90
2023-01-20T17:00:27.687Z,44.90
2023-01-20T17:03:20.835Z,44.90
2023-01-20T17:06:17.870Z,44.90
2023-01-20T17:09:12.115Z,44.90
2023-01-20T17:12:05.881Z,44.90
2023-01-20T17:15:00.930Z,45.00
2023-01-20T17:17:58.125Z,45.00
2023-01-20T17:20:51.728Z,45.00
2023-01-20T17:23:44.635Z,45.00
2023-01-20T17:26:37.921Z,45.00
2023-01-20T17:29:31.056Z,45.00
2023-01-20T17:32:25.855Z,45.00
2023-01-20T17:35:22.014Z,45.00
2023-01-20T17:38:15.735Z,45.00
2023-01-20T17:41:09.284Z,45.00
2023-01-20T17:44:03.894Z,45.00
2023-01-20T17:46:57.718Z,45.00
2023-01-20T17:49:52.019Z,45.00
2023-01-20T17:52:45.690Z,45.00
2023-01-20T17:55:38.673Z,45.00
2023-01-20T17:58:31.271Z,45.00
2023-01-20T18:01:26.528Z,45.00
2023-01-20T18:04:20.367Z,45.00
2023-01-20T18:07:15.036Z,45.00
2023-01-20T18:10:09.298Z,45.10
2023-01-20T18:13:02.548Z,45.10
2023-01-20T18:15:55.940Z,45.10
2023-01-20T18:18:50.698Z,45.10
2023-01-20T18:21:44.356Z,45.10
2023-01-20T18:24:38.652Z,45.10
2023-01-20T18:27:31.287Z,45.20
2023-01-20T18:30:24.508Z,45.20
2023-01-20T18:33:17.547Z,45.20
2023-01-20T18:36:14.571Z,45.20
2023-01-20T18:39:10.316Z,45.10
2023-01-20T18:42:04.472Z,45.20
2023-01-20T18:44:57.786Z,45.20
2023-01-20T18:47:50.767Z,45.20
2023-01-20T18:50:44.089Z,45.20
2023-01-20T18:53:38.112Z,45.20
2023-01-20T18:56:33.283Z,45.20
2023-01-20T18:59:27.778Z,45.20
2023-01-20T19:02:20.891Z,45.20
2023-01-20T19:05:14.669Z,45.20
2023-01-20T19:08:08.220Z,45.20
2023-01-20T19:11:01.944Z,45.20
2023-01-20T19:13:56.098Z,45.20
2023-01-20T19:16:50.750Z,45.20
2023-01-20T19:19:47.894Z,45.20
2023-01-20T19:22:41.227Z,45.20
2023-01-20T19:25:34.332Z,45.20
2023-01-20T19:28:27.957Z,45.20
2023-01-20T19:31:21.648Z,45.10
2023-01-20T19:34:16.022Z,45.20
2023-01-20T19:37:09.509Z,45.20
2023-01-20T19:40:02.755Z,45.10
2023-01-20T19:42:55.732Z,45.10
2023-01-20T19:45:48.814Z,45.10
2023-01-20T19:48:42.013Z,45.00
2023-01-20T19:51:37.247Z,45.00
2023-01-20T19:54:32.054Z,45.00
2023-01-20T19:57:26.984Z,45.10
2023-01-20T20:00:21.176Z,45.20
2023-01-20T20:03:14.283Z,45.30
2023-01-20T20:06:09.804Z,45.40
2023-01-20T20:09:05.747Z,45.50
2023-01-20T20:12:05.142Z,45.60
2023-01-20T20:14:58.752Z,45.60
2023-01-20T20:17:55.343Z,45.70
2023-01-20T20:20:48.743Z,45.80
2023-01-20T20:23:41.456Z,45.90
2023-01-20T20:26:37.582Z,46.00
2023-01-20T20:29:30.573Z,46.00
2023-01-20T20:32:23.332Z,46.00
2023-01-20T20:35:16.857Z,46.10
2023-01-20T20:38:09.189Z,46.20
2023-01-20T20:41:02.520Z,46.20
2023-01-20T20:43:57.186Z,46.20
2023-01-20T20:46:50.795Z,46.30
2023-01-20T20:49:43.894Z,46.30
2023-01-20T20:52:36.925Z,46.30
2023-01-20T20:55:29.879Z,46.40
2023-01-20T20:58:22.682Z,46.50
2023-01-20T21:01:18.829Z,46.40
2023-01-20T21:04:11.749Z,46.50
2023-01-20T21:07:04.387Z,46.50
2023-01-20T21:09:58.384Z,46.60
2023-01-20T21:12:51.817Z,46.70
2023-01-20T21:15:45.013Z,46.70
2023-01-20T21:18:40.905Z,46.90
2023-01-20T21:21:33.846Z,46.70
2023-01-20T21:24:28.823Z,46.70
2023-01-20T21:27:21.503Z,46.60
2023-01-20T21:30:15.348Z,46.60
2023-01-20T21:33:09.591Z,46.60
2023-01-20T21:36:04.177Z,46.50
2023-01-20T21:38:59.437Z,46.40
2023-01-20T21:41:52.891Z,46.30
2023-01-20T21:44:45.645Z,46.30
2023-01-20T21:47:38.727Z,46.30
2023-01-20T21:50:49.364Z,46.20
2023-01-20T21:53:45.770Z,46.20
2023-01-20T21:56:39.288Z,46.20
2023-01-20T21:59:32.767Z,46.20
2023-01-20T22:02:26.030Z,46.10
2023-01-20T22:05:20.041Z,46.10
2023-01-20T22:08:14.757Z,46.20
2023-01-20T22:11:10.136Z,46.20
2023-01-20T22:14:04.029Z,46.10
2023-01-20T22:16:58.764Z,46.10
2023-01-20T22:19:51.722Z,46.10
2023-01-20T22:22:44.819Z,46.10
2023-01-20T22:25:38.023Z,46.10
2023-01-20T22:28:38.237Z,46.10
2023-01-20T22:31:32.142Z,46.10
2023-01-20T22:34:25.668Z,46.10
2023-01-20T22:37:18.638Z,46.10
2023-01-20T22:40:12.968Z,46.10
2023-01-20T22:43:05.730Z,46.10
2023-01-20T22:46:01.154Z,46.10
2023-01-20T22:48:55.745Z,46.10
2023-01-20T22:51:48.708Z,46.00
2023-01-20T22:54:41.931Z,46.00
2023-01-20T22:57:34.971Z,46.00
2023-01-20T23:00:27.404Z,46.10
2023-01-20T23:03:22.210Z,47.70
2023-01-20T23:06:16.329Z,47.40
2023-01-20T23:09:12.796Z,47.10
2023-01-20T23:12:06.373Z,46.80
2023-01-20T23:14:59.990Z,46.90
2023-01-20T23:17:52.670Z,46.60
2023-01-20T23:20:48.728Z,46.70
2023-01-20T23:23:41.779Z,46.20
2023-01-20T23:26:35.184Z,45.90
2023-01-20T23:29:28.768Z,45.70
2023-01-20T23:32:21.608Z,45.50
2023-01-20T23:35:15.009Z,45.80
2023-01-20T23:38:09.437Z,45.00
2023-01-20T23:41:03.707Z,44.70
2023-01-20T23:43:56.564Z,44.50
2023-01-20T23:46:49.686Z,44.40
2023-01-20T23:49:42.802Z,44.30
2023-01-20T23:52:35.981Z,44.10
2023-01-20T23:55:30.251Z,44.00
2023-01-20T23:58:23.899Z,43.80
